createdAt,value
2022-09-28T00:01:05.841Z,14
2022-09-28T00:16:06.148Z,14
2022-09-28T00:31:06.049Z,17
2022-09-28T00:46:05.430Z,22
2022-09-28T01:01:05.880Z,19
2022-09-28T01:16:06.073Z,18
2022-09-28T01:31:05.506Z,21
2022-09-28T01:46:05.706Z,20
2022-09-28T02:01:05.776Z,17
2022-09-28T02:16:06.005Z,16
2022-09-28T02:31:06.190Z,16
2022-09-28T02:46:06.245Z,15
2022-09-28T03:01:06.219Z,17
2022-09-28T03:16:05.116Z,10
2022-09-28T03:31:05.452Z,10
2022-09-28T03:46:05.490Z,11
2022-09-28T04:01:05.415Z,14
2022-09-28T04:16:06.118Z,14
2022-09-28T04:31:05.497Z,19
2022-09-28T04:46:06.002Z,17
2022-09-28T05:01:06.121Z,18
2022-09-28T05:16:06.265Z,17
2022-09-28T05:31:05.918Z,14
2022-09-28T05:46:05.440Z,12
2022-09-28T06:01:05.785Z,15
2022-09-28T06:16:05.565Z,15
2022-09-28T06:31:05.429Z,15
2022-09-28T06:46:06.028Z,12
2022-09-28T07:01:05.488Z,11
2022-09-28T07:16:05.836Z,6
2022-09-28T07:31:05.946Z,9
2022-09-28T07:46:05.270Z,8
2022-09-28T08:01:05.632Z,6
2022-09-28T08:16:05.846Z,6
2022-09-28T08:31:05.141Z,6
2022-09-28T08:46:05.908Z,4
2022-09-28T09:01:05.426Z,5
2022-09-28T09:16:05.639Z,4
2022-09-28T09:31:06.118Z,4
2022-09-28T09:46:05.783Z,5
2022-09-28T10:01:05.248Z,3
2022-09-28T10:16:05.641Z,3
2022-09-28T10:31:05.662Z,3
2022-09-28T10:46:05.562Z,5
2022-09-28T11:01:05.723Z,3
2022-09-28T11:16:04.999Z,3
2022-09-28T11:31:05.353Z,2
2022-09-28T11:46:05.978Z,2
2022-09-28T12:01:05.637Z,4
2022-09-28T12:17:00.811Z,4
2022-09-28T12:31:05.955Z,7
2022-09-28T12:46:13.051Z,7
2022-09-28T13:01:05.133Z,6
2022-09-28T13:16:04.944Z,4
2022-09-28T13:31:04.771Z,4
2022-09-28T13:46:05.759Z,3
2022-09-28T14:01:04.952Z,2
2022-09-28T14:16:05.987Z,4
2022-09-28T14:31:05.490Z,4
2022-09-28T14:46:06.026Z,5
2022-09-28T15:01:05.449Z,6
2022-09-28T15:16:05.970Z,7
2022-09-28T15:31:05.236Z,5
2022-09-28T15:46:05.856Z,5
2022-09-28T16:01:05.691Z,6
2022-09-28T16:16:05.761Z,12
2022-09-28T16:31:04.791Z,10
2022-09-28T16:46:05.641Z,10
2022-09-28T17:01:05.679Z,20
2022-09-28T17:16:06.042Z,24
2022-09-28T17:31:05.573Z,47
2022-09-28T17:46:05.521Z,26
2022-09-28T18:01:05.628Z,21
2022-09-28T18:16:05.400Z,16
2022-09-28T18:31:05.337Z,26
2022-09-28T18:46:05.861Z,30
2022-09-28T19:01:30.654Z,30
2022-09-28T19:16:05.738Z,28
2022-09-28T19:31:05.548Z,30
2022-09-28T19:46:05.657Z,32
2022-09-28T20:01:05.271Z,29
2022-09-28T20:16:05.358Z,33
2022-09-28T20:31:05.264Z,34
2022-09-28T20:46:06.027Z,41
2022-09-28T21:01:05.198Z,30
2022-09-28T21:16:05.663Z,27
2022-09-28T21:31:05.253Z,29
2022-09-28T21:46:05.570Z,26
2022-09-28T22:01:05.328Z,25
2022-09-28T22:16:05.344Z,35
2022-09-28T22:31:06.026Z,20
2022-09-28T22:46:05.975Z,21
2022-09-28T23:01:05.583Z,17
2022-09-28T23:16:05.539Z,16
2022-09-28T23:31:05.264Z,17
2022-09-28T23:46:05.079Z,18
